Time;durP1;ratioP1;P1;durP2;ratioP2;P2;SDS_P1;SDS_P2;PMS_P1;PMS_P2;Temp;Humidity;BMP_temperature;BMP_pressure;BME280_temperature;BME280_humidity;BME280_pressure;Samples;Min_cycle;Max_cycle;Signal;HPM_P1;HPM_P2
2021/10/03 00:01:45;;;;;;;10.40;6.05;;;;;;;8.40;77.50;100718.22;4902314;29;20094;-76
2021/10/03 00:04:11;;;;;;;9.63;6.35;;;;;;;8.36;77.43;100716.59;4902435;29;20082;-76
2021/10/03 00:06:37;;;;;;;9.23;5.97;;;;;;;8.36;77.59;100721.94;4902356;29;20039;-77
2021/10/03 00:09:03;;;;;;;8.82;5.90;;;;;;;8.35;77.83;100730.88;4902322;29;20044;-75
2021/10/03 00:11:29;;;;;;;8.75;5.95;;;;;;;8.41;77.75;100727.94;4886800;29;20071;-76
2021/10/03 00:13:55;;;;;;;12.93;6.18;;;;;;;8.64;77.16;100725.94;4902444;29;20066;-76
2021/10/03 00:16:21;;;;;;;9.25;6.25;;;;;;;8.70;76.95;100730.97;4902330;29;20138;-76
2021/10/03 00:18:47;;;;;;;7.97;5.68;;;;;;;8.48;76.91;100725.84;4933593;29;20433;-75
2021/10/03 00:21:13;;;;;;;7.93;5.55;;;;;;;8.51;77.27;100731.88;4902358;29;20549;-75
2021/10/03 00:23:39;;;;;;;10.85;6.05;;;;;;;8.54;77.18;100740.63;4902258;29;20578;-76
2021/10/03 00:26:05;;;;;;;7.95;6.13;;;;;;;8.53;77.10;100739.78;4902276;29;20052;-77
2021/10/03 00:28:31;;;;;;;10.00;6.00;;;;;;;8.39;77.39;100720.97;4886856;29;20055;-76
2021/10/03 00:30:58;;;;;;;7.85;5.88;;;;;;;8.44;77.46;100725.13;4886553;29;20150;-76
2021/10/03 00:33:23;;;;;;;7.50;6.25;;;;;;;8.46;77.08;100728.59;4902542;29;20055;-74
2021/10/03 00:35:49;;;;;;;8.07;6.28;;;;;;;8.40;77.15;100723.53;4902266;29;20436;-74
2021/10/03 00:38:17;;;;;;;6.65;5.90;;;;;;;8.47;77.40;100729.44;4902260;29;20175;-77
2021/10/03 00:40:43;;;;;;;8.85;5.70;;;;;;;8.29;77.25;100699.19;4902544;29;20051;-75
2021/10/03 00:43:09;;;;;;;9.05;5.50;;;;;;;8.44;77.61;100735.78;4918416;29;20051;-75
2021/10/03 00:45:36;;;;;;;10.10;6.00;;;;;;;8.42;77.14;100726.13;4886568;29;20399;-76
2021/10/03 00:48:02;;;;;;;11.80;6.10;;;;;;;8.60;76.93;100740.34;4902390;29;20074;-76
2021/10/03 00:50:28;;;;;;;10.15;5.35;;;;;;;8.60;77.06;100729.69;4902104;29;20056;-74
2021/10/03 00:52:54;;;;;;;10.02;5.72;;;;;;;8.59;76.69;100735.97;4902075;29;20499;-75
2021/10/03 00:55:20;;;;;;;9.07;5.97;;;;;;;8.60;76.78;100737.69;4901909;29;20044;-75
2021/10/03 00:57:49;;;;;;;8.60;5.45;;;;;;;8.49;76.70;100723.06;4918183;29;20050;-76
2021/10/03 01:00:16;;;;;;;11.35;6.25;;;;;;;8.62;76.56;100734.00;4917727;29;20052;-76
2021/10/03 01:02:42;;;;;;;9.65;5.72;;;;;;;8.63;76.70;100740.19;4887901;29;20051;-77
2021/10/03 01:05:08;;;;;;;7.53;5.90;;;;;;;8.64;76.66;100744.59;4905434;29;20409;-75
2021/10/03 01:07:37;;;;;;;8.25;5.80;;;;;;;8.66;76.56;100737.38;4921250;29;20499;-74
2021/10/03 01:10:08;;;;;;;9.32;5.85;;;;;;;8.50;76.90;100734.63;4905343;29;20055;-76
2021/10/03 01:12:35;;;;;;;7.75;5.90;;;;;;;8.51;76.86;100742.53;4890311;29;20039;-76
2021/10/03 01:15:02;;;;;;;7.03;5.75;;;;;;;8.48;76.99;100744.47;4905664;29;20068;-75
2021/10/03 01:17:29;;;;;;;7.05;5.70;;;;;;;8.51;77.17;100757.66;4905297;29;20111;-75
2021/10/03 01:19:55;;;;;;;7.70;6.07;;;;;;;8.61;76.82;100752.72;4905153;29;20050;-77
2021/10/03 01:22:21;;;;;;;10.23;6.43;;;;;;;8.56;76.68;100750.28;4904933;29;20415;-76
2021/10/03 01:24:47;;;;;;;8.25;5.90;;;;;;;8.47;77.12;100748.94;4904963;29;20054;-77
2021/10/03 01:27:13;;;;;;;6.53;5.72;;;;;;;8.37;77.00;100739.69;4905446;29;20044;-77
2021/10/03 01:29:39;;;;;;;9.20;6.80;;;;;;;8.41;77.04;100751.03;4905565;29;20439;-76
2021/10/03 01:32:05;;;;;;;10.07;6.38;;;;;;;8.37;77.67;100754.78;4904686;29;20047;-77
2021/10/03 01:34:31;;;;;;;7.20;6.43;;;;;;;8.41;77.22;100751.03;4905007;29;20090;-76
2021/10/03 01:36:57;;;;;;;9.15;6.68;;;;;;;8.40;77.30;100755.53;4904585;29;20043;-75
2021/10/03 01:39:23;;;;;;;10.60;6.88;;;;;;;8.35;77.36;100762.84;4904895;29;20081;-77
2021/10/03 01:41:49;;;;;;;10.02;7.03;;;;;;;8.23;77.74;100755.41;4904710;29;20050;-76
2021/10/03 01:44:14;;;;;;;9.38;7.60;;;;;;;8.26;77.75;100757.94;4904897;29;20146;-77
2021/10/03 01:46:41;;;;;;;9.02;7.18;;;;;;;8.12;77.83;100755.06;4905004;29;20138;-75
2021/10/03 01:49:07;;;;;;;11.32;8.23;;;;;;;8.12;77.89;100747.94;4920483;29;20052;-78
2021/10/03 01:51:33;;;;;;;11.45;8.27;;;;;;;8.06;77.76;100739.41;4904638;29;20054;-75
2021/10/03 01:53:59;;;;;;;8.93;6.97;;;;;;;8.17;77.81;100753.06;4904576;29;20126;-76
2021/10/03 01:56:26;;;;;;;9.35;7.10;;;;;;;8.12;78.02;100747.94;4904684;29;20040;-75
2021/10/03 01:58:55;;;;;;;10.95;7.15;;;;;;;8.24;77.98;100771.34;4904478;29;20567;-76
2021/10/03 02:01:24;;;;;;;8.73;7.13;;;;;;;8.24;77.82;100763.34;4937099;29;20051;-76
2021/10/03 02:03:50;;;;;;;8.20;6.85;;;;;;;8.38;77.32;100767.19;4904698;29;20074;-76
2021/10/03 02:06:16;;;;;;;10.45;7.22;;;;;;;8.33;77.46;100762.03;4888484;29;20422;-75
2021/10/03 02:08:42;;;;;;;11.23;7.63;;;;;;;8.31;77.41;100763.91;4888860;29;20048;-75
2021/10/03 02:11:08;;;;;;;10.88;7.35;;;;;;;8.33;77.38;100770.03;4904173;29;20419;-76
2021/10/03 02:13:34;;;;;;;9.32;7.40;;;;;;;8.38;77.23;100775.16;4903601;29;20138;-75
2021/10/03 02:16:03;;;;;;;10.32;7.47;;;;;;;8.50;76.95;100771.94;4903822;29;20557;-76
2021/10/03 02:18:37;;;;;;;12.52;7.38;;;;;;;8.55;76.61;100758.38;4904793;29;20460;-75
2021/10/03 02:21:03;;;;;;;9.27;7.43;;;;;;;8.57;76.51;100767.16;4904276;29;20043;-76
2021/10/03 02:23:30;;;;;;;9.32;6.88;;;;;;;8.57;76.42;100759.16;4904038;29;20130;-77
2021/10/03 02:25:55;;;;;;;8.82;7.50;;;;;;;8.64;76.09;100772.09;4919451;29;20446;-76
2021/10/03 02:28:23;;;;;;;11.02;6.75;;;;;;;8.52;76.28;100752.25;4903825;29;20050;-76
2021/10/03 02:30:50;;;;;;;9.05;7.07;;;;;;;8.63;75.88;100769.53;4903922;29;20079;-76
2021/10/03 02:33:16;;;;;;;8.80;7.25;;;;;;;8.58;76.28;100775.09;4903582;29;20044;-76
2021/10/03 02:35:43;;;;;;;10.02;7.32;;;;;;;8.54;76.11;100780.63;4903688;29;20051;-76
2021/10/03 02:38:10;;;;;;;8.27;7.10;;;;;;;8.56;76.25;100781.41;4903783;29;20139;-75
2021/10/03 02:40:36;;;;;;;10.32;7.68;;;;;;;8.58;75.71;100768.91;4903512;29;20068;-75
2021/10/03 02:43:05;;;;;;;10.38;7.60;;;;;;;8.61;75.71;100774.91;4903532;29;20126;-75
2021/10/03 02:45:36;;;;;;;8.45;7.13;;;;;;;8.68;75.78;100770.16;4919857;29;20459;-76
2021/10/03 02:48:02;;;;;;;10.38;7.13;;;;;;;8.64;75.75;100779.25;4903492;29;20047;-77
2021/10/03 02:50:28;;;;;;;9.45;7.30;;;;;;;8.70;75.74;100774.47;4903502;29;20118;-75
2021/10/03 02:52:54;;;;;;;9.93;7.68;;;;;;;8.71;75.16;100770.00;4903584;29;20056;-76
2021/10/03 02:55:20;;;;;;;10.27;7.97;;;;;;;8.75;75.25;100771.56;4903503;29;20050;-77
2021/10/03 02:57:46;;;;;;;11.30;8.35;;;;;;;8.85;75.09;100785.31;4903631;29;20065;-77
2021/10/03 03:00:13;;;;;;;10.90;7.95;;;;;;;8.89;75.08;100771.75;4903347;29;20095;-75
2021/10/03 03:02:39;;;;;;;11.82;7.55;;;;;;;8.98;74.87;100779.28;4903755;29;20442;-74
2021/10/03 03:05:08;;;;;;;12.48;7.88;;;;;;;9.11;74.82;100784.88;4903799;29;20134;-76
2021/10/03 03:07:35;;;;;;;9.52;7.35;;;;;;;9.19;74.62;100793.34;4903227;29;20114;-77
2021/10/03 03:10:02;;;;;;;11.65;6.85;;;;;;;9.19;73.95;100772.00;4903057;29;20039;-76
2021/10/03 03:12:29;;;;;;;10.55;7.93;;;;;;;9.29;73.98;100795.53;4903533;29;20043;-75
2021/10/03 03:14:54;;;;;;;8.75;6.65;;;;;;;9.33;73.17;100792.66;4887493;29;20119;-76
2021/10/03 03:17:21;;;;;;;7.88;6.43;;;;;;;9.30;73.15;100789.28;4903049;29;20059;-77
2021/10/03 03:19:47;;;;;;;11.07;7.97;;;;;;;8.96;73.42;100766.97;4903799;29;20414;-75
2021/10/03 03:22:13;;;;;;;7.30;6.45;;;;;;;8.83;74.21;100790.72;4902782;29;20143;-77
2021/10/03 03:24:39;;;;;;;8.25;6.72;;;;;;;8.85;74.21;100790.66;4902623;29;20047;-76
2021/10/03 03:27:06;;;;;;;7.47;6.65;;;;;;;8.76;74.46;100786.63;4886951;29;20054;-77
2021/10/03 03:29:32;;;;;;;7.85;6.75;;;;;;;8.79;74.60;100794.47;4902674;29;20412;-76
2021/10/03 03:31:59;;;;;;;8.20;6.47;;;;;;;8.81;74.31;100792.63;4902758;29;20522;-78
2021/10/03 03:34:25;;;;;;;11.43;7.10;;;;;;;8.94;74.21;100796.38;4902792;29;20063;-77
2021/10/03 03:36:51;;;;;;;8.43;7.03;;;;;;;8.89;74.17;100801.09;4917749;29;20130;-81
2021/10/03 03:39:17;;;;;;;9.90;6.60;;;;;;;9.06;75.79;100791.38;4935443;29;20575;-77
2021/10/03 03:41:43;;;;;;;8.23;5.53;;;;;;;9.65;74.87;100801.63;4902554;29;20047;-77
2021/10/03 03:44:09;;;;;;;14.70;6.00;;;;;;;10.02;73.78;100801.47;4902707;29;20419;-78
2021/10/03 03:46:35;;;;;;;7.45;6.15;;;;;;;10.11;72.32;100800.94;4886943;29;20043;-77
2021/10/03 03:49:01;;;;;;;7.35;6.05;;;;;;;10.08;71.92;100803.78;4917524;29;20522;-76
2021/10/03 03:51:27;;;;;;;7.22;6.18;;;;;;;10.04;71.23;100807.56;4902341;29;20203;-77
2021/10/03 03:53:53;;;;;;;8.52;6.80;;;;;;;9.96;70.90;100816.84;4901928;29;20047;-75
2021/10/03 03:56:19;;;;;;;8.35;6.30;;;;;;;9.94;70.89;100808.09;4902564;29;20044;-75
2021/10/03 03:58:44;;;;;;;7.75;6.40;;;;;;;10.03;71.13;100806.72;4918051;29;20511;-77
2021/10/03 04:01:10;;;;;;;7.57;6.68;;;;;;;10.12;70.89;100816.06;4886796;29;20047;-76
2021/10/03 04:03:37;;;;;;;7.35;6.60;;;;;;;10.25;70.83;100811.78;4887260;29;20135;-76
2021/10/03 04:06:03;;;;;;;13.25;6.70;;;;;;;10.27;70.20;100792.97;4902723;29;20055;-75
2021/10/03 04:08:29;;;;;;;10.10;6.70;;;;;;;10.43;69.57;100818.78;4918220;29;20044;-76
2021/10/03 04:10:55;;;;;;;8.32;6.45;;;;;;;10.43;69.16;100815.25;4886812;29;20384;-78
2021/10/03 04:13:21;;;;;;;10.00;7.38;;;;;;;10.39;68.11;100808.34;4886497;29;20412;-76
2021/10/03 04:15:47;;;;;;;9.02;7.53;;;;;;;10.38;68.82;100820.84;4917877;29;20048;-77
2021/10/03 04:18:13;;;;;;;10.30;8.80;;;;;;;10.36;68.58;100819.19;4886737;29;20095;-76
2021/10/03 04:20:39;;;;;;;9.35;7.95;;;;;;;10.23;68.32;100835.03;4887122;29;20102;-78
2021/10/03 04:23:05;;;;;;;10.23;8.65;;;;;;;10.26;68.69;100840.22;4902453;29;20048;-76
2021/10/03 04:25:31;;;;;;;10.35;9.07;;;;;;;10.24;68.24;100838.56;4902314;29;20135;-77
2021/10/03 04:27:58;;;;;;;13.45;9.48;;;;;;;10.34;68.54;100837.13;4886656;29;20047;-77
2021/10/03 04:30:25;;;;;;;13.45;8.50;;;;;;;10.30;68.47;100840.91;4886824;29;20079;-76
2021/10/03 04:32:51;;;;;;;11.38;8.20;;;;;;;10.38;67.66;100818.19;4934793;29;20458;-77
2021/10/03 04:35:17;;;;;;;8.52;6.57;;;;;;;10.40;67.47;100821.63;4901961;29;20048;-77
2021/10/03 04:37:46;;;;;;;9.40;7.32;;;;;;;10.59;67.65;100833.97;4887782;29;20043;-77
2021/10/03 04:40:12;;;;;;;7.95;7.18;;;;;;;10.60;67.03;100833.00;4920858;29;20057;-77
2021/10/03 04:42:38;;;;;;;9.93;7.47;;;;;;;10.62;66.94;100831.13;4888120;29;20588;-76
2021/10/03 04:45:05;;;;;;;8.40;5.72;;;;;;;10.55;66.40;100824.38;4919628;29;20055;-77
2021/10/03 04:47:31;;;;;;;10.95;6.82;;;;;;;10.68;66.42;100833.41;4904074;29;20442;-77
2021/10/03 04:49:58;;;;;;;8.80;6.60;;;;;;;10.75;66.66;100832.13;4904841;29;20065;-76
2021/10/03 04:52:28;;;;;;;9.95;6.10;;;;;;;10.89;66.30;100840.22;4890990;29;20515;-77
2021/10/03 04:54:54;;;;;;;7.00;6.15;;;;;;;10.82;65.88;100833.50;4908031;29;20586;-77
2021/10/03 04:58:06;;;;;;;6.35;5.68;;;;;;;10.92;65.87;100839.19;4924871;29;20071;-77
2021/10/03 05:00:32;;;;;;;7.18;6.45;;;;;;;10.88;65.32;100845.69;4925288;29;20059;-78
2021/10/03 05:02:58;;;;;;;7.15;6.40;;;;;;;11.01;65.66;100845.81;4892519;29;20427;-76
2021/10/03 05:05:24;;;;;;;8.23;6.05;;;;;;;10.97;64.91;100841.59;4907190;29;20127;-76
2021/10/03 05:08:14;;;;;;;7.18;5.47;;;;;;;11.06;64.84;100846.44;4912412;29;20058;-76
2021/10/03 05:10:40;;;;;;;5.30;4.80;;;;;;;11.16;64.99;100844.94;4905530;29;20138;-76
2021/10/03 05:13:06;;;;;;;6.40;5.38;;;;;;;11.26;64.07;100848.81;4905332;29;20061;-78
2021/10/03 05:15:32;;;;;;;7.63;5.50;;;;;;;11.26;63.95;100851.47;4905365;29;20455;-77
2021/10/03 05:17:58;;;;;;;5.22;4.72;;;;;;;10.96;63.30;100821.16;4905139;29;20052;-75
2021/10/03 05:20:24;;;;;;;8.40;5.93;;;;;;;11.09;63.79;100835.53;4904979;29;20058;-77
2021/10/03 05:22:50;;;;;;;5.60;4.75;;;;;;;11.13;63.34;100854.03;4889641;29;20410;-77
2021/10/03 05:25:15;;;;;;;5.25;4.68;;;;;;;10.79;64.30;100848.88;4904668;29;20410;-76
2021/10/03 05:27:41;;;;;;;7.13;5.25;;;;;;;10.84;64.52;100853.03;4937447;29;20047;-77
2021/10/03 05:30:08;;;;;;;7.40;6.10;;;;;;;10.85;64.90;100860.09;4905165;29;20062;-77
2021/10/03 05:32:34;;;;;;;7.78;5.50;;;;;;;10.97;65.11;100844.28;4904523;29;20052;-77
2021/10/03 05:35:00;;;;;;;6.90;5.82;;;;;;;11.12;65.06;100852.28;4920688;29;20044;-76
2021/10/03 05:37:26;;;;;;;6.35;5.57;;;;;;;11.42;64.52;100859.47;4920515;29;20047;-77
2021/10/03 05:39:52;;;;;;;7.22;5.97;;;;;;;11.32;64.43;100837.75;4920548;29;20043;-76
2021/10/03 05:42:18;;;;;;;5.60;5.00;;;;;;;11.63;64.11;100847.47;4904877;29;20044;-76
2021/10/03 05:44:44;;;;;;;5.95;5.35;;;;;;;11.87;64.04;100839.78;4920413;29;20135;-76
2021/10/03 05:47:10;;;;;;;9.90;6.68;;;;;;;12.10;63.00;100846.38;4919957;29;20087;-76
2021/10/03 05:49:35;;;;;;;5.90;5.20;;;;;;;12.25;62.66;100827.63;4888864;29;20470;-76
2021/10/03 05:52:01;;;;;;;7.78;5.13;;;;;;;12.52;62.16;100841.09;4904291;29;20136;-76
2021/10/03 05:54:27;;;;;;;10.38;5.53;;;;;;;12.39;61.35;100847.25;4904364;29;20059;-76
2021/10/03 05:56:53;;;;;;;6.05;5.45;;;;;;;12.30;60.86;100853.19;4888696;29;20051;-77
2021/10/03 05:59:19;;;;;;;8.77;6.75;;;;;;;12.27;60.86;100841.81;4888684;29;20043;-76
2021/10/03 06:01:45;;;;;;;9.45;7.97;;;;;;;12.32;60.49;100837.00;4904770;29;20503;-77
2021/10/03 06:04:11;;;;;;;9.60;7.03;;;;;;;12.08;60.64;100842.09;4889586;29;20425;-77
2021/10/03 06:06:37;;;;;;;10.93;6.95;;;;;;;12.10;61.37;100840.16;4889202;29;20051;-77
2021/10/03 06:09:03;;;;;;;9.25;8.13;;;;;;;12.28;61.10;100844.38;4905314;29;20163;-76
2021/10/03 06:11:29;;;;;;;6.05;5.45;;;;;;;12.44;60.22;100841.56;4889359;29;20050;-77
2021/10/03 06:13:57;;;;;;;5.45;4.70;;;;;;;12.26;59.18;100837.38;4919719;29;20094;-75
2021/10/03 06:16:23;;;;;;;8.30;4.68;;;;;;;12.21;60.58;100840.34;4904556;29;20526;-76
2021/10/03 06:18:49;;;;;;;6.55;4.90;;;;;;;12.25;60.06;100844.56;4904869;29;20103;-75
2021/10/03 06:21:16;;;;;;;5.53;4.97;;;;;;;11.86;60.55;100848.78;4889420;29;20047;-75
2021/10/03 06:23:42;;;;;;;6.18;5.30;;;;;;;11.66;61.48;100843.75;4905170;29;20044;-76
2021/10/03 06:26:09;;;;;;;6.53;5.25;;;;;;;11.76;62.01;100846.72;4905472;29;20071;-77
2021/10/03 06:28:34;;;;;;;11.48;4.75;;;;;;;11.93;61.93;100826.97;4904568;29;20054;-77
2021/10/03 06:31:01;;;;;;;5.97;4.90;;;;;;;12.17;61.40;100848.69;4903752;29;20043;-76
2021/10/03 06:33:27;;;;;;;15.82;4.93;;;;;;;12.15;61.11;100843.44;4889253;29;20079;-76
2021/10/03 06:35:53;;;;;;;9.27;4.75;;;;;;;12.24;61.04;100837.50;4889557;29;20555;-75
2021/10/03 06:38:19;;;;;;;6.57;5.30;;;;;;;12.33;61.03;100841.41;4904600;29;20388;-75
2021/10/03 06:40:45;;;;;;;6.60;4.80;;;;;;;12.50;60.98;100837.66;4919490;29;20061;-76
2021/10/03 06:43:11;;;;;;;8.05;4.65;;;;;;;12.59;60.59;100837.91;4903639;29;20047;-76
2021/10/03 06:45:37;;;;;;;4.53;3.35;;;;;;;12.18;60.19;100837.88;4903658;29;20055;-76
2021/10/03 06:48:03;;;;;;;3.85;3.13;;;;;;;11.89;61.09;100842.38;4888910;29;20411;-75
2021/10/03 06:50:32;;;;;;;5.28;3.58;;;;;;;12.14;61.00;100836.34;4920126;29;20039;-75
2021/10/03 06:52:58;;;;;;;5.95;4.70;;;;;;;11.84;61.56;100839.09;4919624;29;20470;-75
2021/10/03 06:55:24;;;;;;;7.22;5.45;;;;;;;12.07;61.55;100835.00;4887670;29;20048;-75
2021/10/03 06:57:50;;;;;;;8.65;7.15;;;;;;;12.15;61.55;100838.09;4887893;29;20048;-75
2021/10/03 07:00:15;;;;;;;9.00;7.30;;;;;;;12.30;61.42;100831.75;4887135;29;20094;-75
2021/10/03 07:02:42;;;;;;;9.00;6.80;;;;;;;12.33;60.51;100831.53;4887734;29;20040;-75
2021/10/03 07:05:08;;;;;;;8.75;7.00;;;;;;;12.24;60.64;100831.28;4887706;29;20155;-76
2021/10/03 07:07:34;;;;;;;7.38;6.35;;;;;;;12.29;60.46;100829.16;4887071;29;20051;-78
2021/10/03 07:10:00;;;;;;;9.55;7.00;;;;;;;12.18;59.91;100832.50;4903524;29;20048;-76
2021/10/03 07:12:26;;;;;;;9.00;6.38;;;;;;;11.98;60.29;100824.84;4903313;29;20048;-75
2021/10/03 07:14:52;;;;;;;7.78;6.35;;;;;;;12.01;60.92;100824.69;4902968;29;20134;-75
2021/10/03 07:17:18;;;;;;;6.70;5.82;;;;;;;11.86;61.27;100824.66;4903252;29;20098;-77
2021/10/03 07:19:44;;;;;;;8.30;5.38;;;;;;;11.17;62.42;100822.59;4887204;29;20047;-75
2021/10/03 07:22:12;;;;;;;7.68;5.40;;;;;;;11.18;63.07;100829.66;4903206;29;20036;-76
2021/10/03 07:24:38;;;;;;;10.83;4.93;;;;;;;11.36;62.75;100827.72;4887793;29;20047;-77
2021/10/03 07:27:08;;;;;;;8.73;4.93;;;;;;;11.22;62.63;100822.31;4887146;29;20411;-78
2021/10/03 07:29:36;;;;;;;6.97;4.80;;;;;;;10.93;63.03;100831.06;4903032;29;20513;-76
2021/10/03 07:32:06;;;;;;;6.30;4.78;;;;;;;10.91;63.98;100833.00;4903216;29;20507;-77
2021/10/03 07:34:41;;;;;;;7.30;4.82;;;;;;;11.13;63.90;100824.59;4919007;29;20044;-77
2021/10/03 07:37:07;;;;;;;7.43;5.72;;;;;;;11.45;63.55;100823.63;4888528;29;20046;-76
2021/10/03 07:39:34;;;;;;;9.77;6.90;;;;;;;11.63;63.20;100826.03;4886680;29;20047;-75
2021/10/03 07:42:01;;;;;;;7.97;6.78;;;;;;;11.68;63.04;100817.72;4902491;29;20044;-77
2021/10/03 07:44:27;;;;;;;9.35;7.15;;;;;;;11.76;63.08;100809.22;4886881;29;20043;-75
2021/10/03 07:47:00;;;;;;;9.15;6.43;;;;;;;11.96;62.49;100816.03;4902510;29;20054;-76
2021/10/03 07:49:27;;;;;;;7.32;5.45;;;;;;;12.22;61.95;100807.22;4887972;29;20040;-77
2021/10/03 07:52:03;;;;;;;8.05;6.28;;;;;;;12.48;61.23;100804.69;4886437;29;20058;-75
2021/10/03 07:54:29;;;;;;;9.88;6.30;;;;;;;12.23;60.80;100792.88;4905031;29;20096;-76
2021/10/03 07:56:55;;;;;;;7.32;5.40;;;;;;;12.62;60.99;100797.47;4902804;29;20048;-76
2021/10/03 07:59:21;;;;;;;7.68;5.40;;;;;;;12.94;60.67;100799.88;4902514;29;20050;-76
2021/10/03 08:01:47;;;;;;;6.50;5.40;;;;;;;13.27;59.79;100790.53;4887076;29;20050;-76
2021/10/03 08:04:13;;;;;;;5.15;4.55;;;;;;;13.66;59.42;100792.28;4902682;29;20103;-75
2021/10/03 08:06:39;;;;;;;5.70;4.63;;;;;;;14.09;57.81;100798.16;4902579;29;20044;-76
2021/10/03 08:09:05;;;;;;;6.80;4.40;;;;;;;14.33;54.91;100771.34;4918286;29;20419;-75
2021/10/03 08:11:30;;;;;;;6.65;4.28;;;;;;;14.76;54.89;100784.34;4918381;29;20134;-77
2021/10/03 08:13:56;;;;;;;5.18;4.68;;;;;;;15.20;53.85;100781.97;4906045;29;20502;-76
2021/10/03 08:16:24;;;;;;;7.20;4.82;;;;;;;15.27;52.47;100789.47;4890902;29;20039;-77
2021/10/03 08:18:49;;;;;;;6.15;5.55;;;;;;;15.03;52.16;100775.16;4907027;29;20044;-77
2021/10/03 08:21:16;;;;;;;6.68;5.25;;;;;;;14.76;52.63;100789.72;4906538;29;20073;-76
2021/10/03 08:23:42;;;;;;;5.60;5.05;;;;;;;14.61;53.31;100792.72;4890674;29;20499;-77
2021/10/03 08:26:08;;;;;;;9.70;5.63;;;;;;;14.72;53.56;100788.25;4890809;29;20044;-76
2021/10/03 08:28:35;;;;;;;5.68;4.28;;;;;;;14.89;52.46;100788.81;4906287;29;20062;-76
2021/10/03 08:31:01;;;;;;;2.58;2.38;;;;;;;14.52;51.07;100783.50;4906236;29;20078;-76
2021/10/03 08:33:29;;;;;;;2.58;2.38;;;;;;;14.29;51.60;100783.31;4906272;29;20126;-75
2021/10/03 08:35:55;;;;;;;2.30;2.03;;;;;;;13.90;52.47;100783.47;4890401;29;20122;-75
2021/10/03 08:38:21;;;;;;;7.00;2.28;;;;;;;13.85;52.65;100781.97;4890456;29;20138;-75
2021/10/03 08:40:47;;;;;;;3.97;2.30;;;;;;;13.66;52.93;100792.28;4906215;29;20044;-77
2021/10/03 08:43:13;;;;;;;2.78;2.42;;;;;;;13.21;53.65;100781.03;4891604;29;20043;-76
2021/10/03 08:45:44;;;;;;;2.58;2.35;;;;;;;13.11;54.40;100782.63;4906295;29;20091;-76
2021/10/03 08:48:11;;;;;;;3.00;2.70;;;;;;;12.94;54.71;100785.56;4906810;29;20518;-76
2021/10/03 08:50:37;;;;;;;3.78;3.10;;;;;;;12.66;55.94;100790.09;4905816;29;20194;-76
2021/10/03 08:53:06;;;;;;;5.82;2.72;;;;;;;12.45;56.71;100770.03;4905549;29;20056;-75
2021/10/03 08:55:40;;;;;;;3.47;3.17;;;;;;;12.51;56.85;100780.38;4905858;29;20457;-77
2021/10/03 08:58:11;;;;;;;3.58;3.28;;;;;;;12.53;57.76;100784.69;4907212;29;20099;-76
2021/10/03 09:00:46;;;;;;;3.88;3.45;;;;;;;12.55;57.98;100782.75;4906978;29;20396;-76
2021/10/03 09:03:33;;;;;;;3.58;2.75;;;;;;;12.62;57.84;100788.56;4889748;29;20052;-77
2021/10/03 09:05:59;;;;;;;3.60;2.90;;;;;;;12.33;58.28;100783.25;4890007;29;20143;-76
2021/10/03 09:08:30;;;;;;;3.10;2.80;;;;;;;12.22;58.45;100774.19;4905559;29;20063;-76
2021/10/03 09:14:36;;;;;;;3.13;2.83;;;;;;;13.05;57.61;100769.59;4900296;29;20063;-77
2021/10/03 09:17:12;;;;;;;3.00;2.58;;;;;;;13.33;57.17;100777.53;4920898;29;20075;-78
2021/10/03 09:20:24;;;;;;;6.25;2.50;;;;;;;13.42;56.34;100770.66;4890330;29;20058;-76
2021/10/03 09:23:11;;;;;;;2.88;2.60;;;;;;;13.63;56.32;100776.38;4889714;29;20523;-75
2021/10/03 09:25:48;;;;;;;3.33;2.70;;;;;;;13.63;56.74;100772.84;4904949;29;20040;-76
2021/10/03 09:28:15;;;;;;;3.72;3.35;;;;;;;13.45;56.64;100777.66;4889564;29;20044;-75
2021/10/03 09:31:07;;;;;;;3.92;3.10;;;;;;;13.18;56.89;100770.50;4920213;29;20435;-75
2021/10/03 09:33:49;;;;;;;8.07;5.65;;;;;;;12.77;59.28;100782.19;4905966;29;20051;-76
2021/10/03 09:36:24;;;;;;;6.22;4.20;;;;;;;12.43;59.92;100790.72;4921168;29;20575;-75
2021/10/03 09:38:57;;;;;;;8.15;5.40;;;;;;;11.64;62.04;100792.94;4904945;29;20048;-76
2021/10/03 09:41:25;;;;;;;6.88;5.25;;;;;;;11.16;63.61;100794.94;4888980;29;20052;-74
2021/10/03 09:43:57;;;;;;;6.85;5.95;;;;;;;10.62;65.50;100807.91;4889070;29;20085;-77
2021/10/03 09:46:35;;;;;;;9.65;7.82;;;;;;;10.32;67.28;100798.94;4889265;29;20055;-76
2021/10/03 09:49:03;;;;;;;11.20;8.73;;;;;;;10.03;69.15;100795.16;4905034;29;20199;-75
2021/10/03 09:51:29;;;;;;;11.10;9.60;;;;;;;10.01;69.07;100781.03;4904344;29;20563;-74
2021/10/03 09:53:55;;;;;;;10.13;8.43;;;;;;;10.24;68.64;100788.66;4888854;29;20043;-76
2021/10/03 09:56:21;;;;;;;11.07;8.40;;;;;;;10.67;68.30;100796.94;4888695;29;20054;-75
2021/10/03 09:58:47;;;;;;;12.48;7.85;;;;;;;10.95;67.66;100790.88;4888882;29;20051;-76
2021/10/03 10:01:13;;;;;;;12.32;7.30;;;;;;;11.23;66.83;100790.09;4904294;29;20113;-76
2021/10/03 10:03:40;;;;;;;13.43;7.47;;;;;;;11.37;65.90;100779.41;4888907;29;20052;-76
2021/10/03 10:06:06;;;;;;;19.63;8.30;;;;;;;11.67;65.59;100775.81;4904289;29;20512;-75
2021/10/03 10:08:33;;;;;;;17.85;8.27;;;;;;;11.97;64.90;100785.63;4904048;29;20095;-75
2021/10/03 10:11:16;;;;;;;19.15;8.25;;;;;;;11.67;64.53;100784.72;4904157;29;20099;-75
2021/10/03 10:13:43;;;;;;;18.42;8.35;;;;;;;11.91;65.17;100787.72;4888744;29;20051;-76
2021/10/03 10:16:31;;;;;;;24.55;8.80;;;;;;;12.13;65.05;100795.28;4904045;29;20047;-76
2021/10/03 10:19:33;;;;;;;19.27;8.85;;;;;;;12.30;64.17;100782.63;4919551;29;20059;-75
2021/10/03 10:22:14;;;;;;;17.42;8.38;;;;;;;12.19;63.05;100791.34;4903483;29;20032;-76
2021/10/03 10:24:51;;;;;;;20.77;8.32;;;;;;;12.29;63.22;100788.94;4919516;29;20051;-76
2021/10/03 10:27:28;;;;;;;32.13;7.70;;;;;;;12.69;63.42;100784.53;4880337;29;20055;-76
2021/10/03 10:29:57;;;;;;;26.65;7.93;;;;;;;12.86;61.96;100775.34;4919061;29;20119;-75
2021/10/03 10:32:27;;;;;;;18.45;8.57;;;;;;;13.06;61.28;100780.25;4903420;29;20415;-75
2021/10/03 10:35:09;;;;;;;23.45;8.45;;;;;;;13.12;60.55;100787.88;4902963;29;20107;-75
2021/10/03 10:37:54;;;;;;;19.23;7.40;;;;;;;13.00;60.36;100785.16;4919335;29;20040;-74
2021/10/03 10:40:23;;;;;;;21.15;8.65;;;;;;;12.85;62.11;100785.22;4919163;29;20071;-75
2021/10/03 10:43:13;;;;;;;22.65;8.15;;;;;;;13.16;62.08;100788.53;4903340;29;20043;-75
2021/10/03 10:45:44;;;;;;;17.60;7.18;;;;;;;13.38;60.63;100785.28;4904213;29;20043;-75
2021/10/03 10:48:09;;;;;;;12.55;7.18;;;;;;;13.25;59.23;100792.47;4889137;29;20494;-77
2021/10/03 10:50:46;;;;;;;18.65;7.78;;;;;;;13.47;58.39;100786.50;4934786;29;20039;-76
2021/10/03 10:53:32;;;;;;;17.88;7.85;;;;;;;13.71;57.58;100791.97;4902961;29;20411;-76
2021/10/03 10:56:04;;;;;;;22.50;8.52;;;;;;;13.98;57.58;100791.84;4905948;29;20043;-76
2021/10/03 10:58:31;;;;;;;14.43;7.50;;;;;;;13.83;55.42;100794.63;4903249;29;20131;-75
2021/10/03 11:01:05;;;;;;;12.88;7.22;;;;;;;13.54;55.83;100799.38;4902838;29;20070;-77
2021/10/03 11:03:59;;;;;;;18.08;8.52;;;;;;;13.00;56.16;100802.13;4903452;29;20051;-75
2021/10/03 11:06:28;;;;;;;20.50;9.23;;;;;;;12.53;57.53;100800.78;4899974;29;20071;-75
2021/10/03 11:08:59;;;;;;;20.15;9.18;;;;;;;12.21;58.75;100805.50;4903208;29;20542;-77
2021/10/03 11:11:29;;;;;;;19.55;9.00;;;;;;;11.94;59.70;100804.56;4902777;29;20055;-76
2021/10/03 11:13:59;;;;;;;14.55;8.57;;;;;;;11.76;60.69;100803.84;4918798;29;20087;-76
2021/10/03 11:16:46;;;;;;;19.00;7.85;;;;;;;11.22;62.69;100807.09;4892177;29;20147;-76
2021/10/03 11:19:31;;;;;;;17.13;7.10;;;;;;;11.16;62.98;100799.44;4888775;29;20119;-77
2021/10/03 11:21:57;;;;;;;9.23;5.68;;;;;;;11.10;63.30;100800.69;4921083;29;20047;-75
2021/10/03 11:24:33;;;;;;;10.80;5.38;;;;;;;11.12;63.14;100805.91;4919454;29;20048;-76
2021/10/03 11:27:06;;;;;;;14.88;5.60;;;;;;;11.03;62.55;100799.31;4902648;29;20550;-75
2021/10/03 11:29:34;;;;;;;10.85;4.65;;;;;;;11.01;63.10;100808.38;4886719;29;20047;-75
2021/10/03 11:32:14;;;;;;;17.30;5.22;;;;;;;11.18;63.04;100806.44;4887208;29;20142;-75
2021/10/03 11:34:47;;;;;;;21.08;5.95;;;;;;;11.27;62.76;100783.59;4902486;29;20047;-74